METAR Data
IDs: Format: Raw Decoded Include TAF

Data at: 1010 UTC 18 Jan 2019

PAKP 172354Z 18013KT 10SM CLR M18/M21 A2979 RMK VIA PHONE